createdAt,value
2024-01-28T00:03:15.952Z,102108.66
2024-01-28T00:18:06.337Z,102088.28
2024-01-28T00:32:56.956Z,102074.47
2024-01-28T00:47:47.362Z,102066.02
2024-01-28T01:17:28.604Z,102062.36
2024-01-28T01:32:18.780Z,102042.36
2024-01-28T01:47:09.705Z,102058.74
2024-01-28T02:02:01.436Z,102048.27
2024-01-28T02:16:52.925Z,102032.33
2024-01-28T02:31:47.368Z,102024.85
2024-01-28T02:46:40.712Z,102016.08
2024-01-28T03:01:31.231Z,102001.10
2024-01-28T03:16:22.783Z,102010.94
2024-01-28T03:31:19.789Z,102010.10
2024-01-28T04:16:13.430Z,102025.63
2024-01-28T04:31:04.156Z,102015.59
2024-01-28T05:30:30.672Z,101987.34
2024-01-28T06:15:16.847Z,101988.44
2024-01-28T06:30:08.541Z,101980.44
2024-01-28T06:44:59.488Z,101975.73
2024-01-28T06:59:50.166Z,101971.03
2024-01-28T07:14:40.647Z,101967.34
2024-01-28T07:29:32.369Z,101985.97
2024-01-28T07:44:23.688Z,101968.78
2024-01-28T07:59:15.611Z,101969.96
2024-01-28T08:14:07.312Z,101977.76
2024-01-28T08:28:59.858Z,101980.69
2024-01-28T08:43:52.164Z,101993.96
2024-01-28T08:58:43.475Z,101990.41
2024-01-28T09:13:47.069Z,102013.37
2024-01-28T09:28:39.609Z,102016.63
2024-01-28T09:43:32.145Z,102009.03
2024-01-28T09:58:24.752Z,102008.91
2024-01-28T10:13:15.590Z,102008.41
2024-01-28T10:28:08.311Z,101995.83
2024-01-28T10:43:01.703Z,101995.91
2024-01-28T10:57:55.445Z,101987.05
2024-01-28T11:12:47.169Z,101954.91
2024-01-28T11:27:38.900Z,101933.42
2024-01-28T11:42:32.417Z,101917.13
2024-01-28T12:12:14.869Z,101886.85
2024-01-28T12:27:08.019Z,101866.95
2024-01-28T12:42:00.919Z,101833.97
2024-01-28T12:56:52.016Z,101824.05
2024-01-28T13:11:43.764Z,101810.81
2024-01-28T13:26:36.573Z,101811.05
2024-01-28T13:41:28.980Z,101803.30
2024-01-28T13:56:21.129Z,101784.64
2024-01-28T14:11:14.089Z,101766.27
2024-01-28T14:26:04.579Z,101771.61
2024-01-28T14:40:56.139Z,101762.42
2024-01-28T14:55:47.998Z,101757.19
2024-01-28T15:10:40.310Z,101757.28
2024-01-28T15:25:33.191Z,101759.52
2024-01-28T16:10:06.446Z,101751.39
2024-01-28T16:24:56.054Z,101752.48
2024-01-28T16:39:45.822Z,101755.73
2024-01-28T16:54:35.381Z,101746.16
2024-01-28T17:09:25.205Z,101741.00
2024-01-28T17:24:15.502Z,101731.79
2024-01-28T17:39:05.747Z,101724.36
2024-01-28T17:53:56.626Z,101720.41
2024-01-28T18:08:47.522Z,101718.66
2024-01-28T18:23:38.412Z,101721.77
2024-01-28T18:38:28.728Z,101717.81
2024-01-28T18:53:18.780Z,101724.32
2024-01-28T19:08:08.860Z,101737.78
2024-01-28T19:22:58.915Z,101738.95
2024-01-28T19:37:48.382Z,101737.39
2024-01-28T19:52:37.919Z,101745.50
2024-01-28T20:07:26.775Z,101743.61
2024-01-28T20:22:16.795Z,101742.56
2024-01-28T20:37:06.956Z,101728.80
2024-01-28T20:51:56.954Z,101723.84
2024-01-28T21:06:48.311Z,101729.05
2024-01-28T21:21:37.561Z,101718.16
2024-01-28T21:36:29.676Z,101715.92
2024-01-28T21:51:21.315Z,101725.92
2024-01-28T22:06:10.564Z,101733.28
2024-01-28T22:21:02.253Z,101728.81
2024-01-28T23:20:21.400Z,101742.94
2024-01-28T23:35:10.855Z,101738.69
2024-01-28T23:50:01.130Z,101740.48
